sensor_id;sensor_type;location;lat;lon;timestamp;P1;durP1;ratioP1;P2;durP2;ratioP2
66603;SDS011;53460;39.612;8.822;2023-09-18T00:00:44;5.72;;;2.72;;
66603;SDS011;53460;39.612;8.822;2023-09-18T00:03:10;6.70;;;2.50;;
66603;SDS011;53460;39.612;8.822;2023-09-18T00:05:35;5.85;;;2.83;;
66603;SDS011;53460;39.612;8.822;2023-09-18T00:08:01;8.40;;;2.45;;
66603;SDS011;53460;39.612;8.822;2023-09-18T00:10:29;11.18;;;2.80;;
66603;SDS011;53460;39.612;8.822;2023-09-18T00:12:55;9.00;;;2.95;;
66603;SDS011;53460;39.612;8.822;2023-09-18T00:15:21;4.72;;;2.67;;
66603;SDS011;53460;39.612;8.822;2023-09-18T00:17:46;8.18;;;2.40;;
66603;SDS011;53460;39.612;8.822;2023-09-18T00:20:12;13.75;;;3.42;;
66603;SDS011;53460;39.612;8.822;2023-09-18T00:22:38;11.57;;;2.90;;
66603;SDS011;53460;39.612;8.822;2023-09-18T00:25:04;9.80;;;3.20;;
66603;SDS011;53460;39.612;8.822;2023-09-18T00:27:30;8.30;;;3.20;;
66603;SDS011;53460;39.612;8.822;2023-09-18T00:29:55;6.90;;;3.03;;
66603;SDS011;53460;39.612;8.822;2023-09-18T00:32:21;7.63;;;2.80;;
66603;SDS011;53460;39.612;8.822;2023-09-18T00:34:46;8.10;;;3.20;;
66603;SDS011;53460;39.612;8.822;2023-09-18T00:37:12;10.48;;;2.80;;
66603;SDS011;53460;39.612;8.822;2023-09-18T00:39:37;10.32;;;3.53;;
66603;SDS011;53460;39.612;8.822;2023-09-18T00:42:03;9.25;;;3.38;;
66603;SDS011;53460;39.612;8.822;2023-09-18T00:44:28;16.50;;;3.13;;
66603;SDS011;53460;39.612;8.822;2023-09-18T00:46:54;10.00;;;3.00;;
66603;SDS011;53460;39.612;8.822;2023-09-18T00:49:21;8.32;;;3.40;;
66603;SDS011;53460;39.612;8.822;2023-09-18T00:51:47;10.60;;;3.58;;
66603;SDS011;53460;39.612;8.822;2023-09-18T00:54:13;7.80;;;3.70;;
66603;SDS011;53460;39.612;8.822;2023-09-18T00:56:40;7.00;;;3.08;;
66603;SDS011;53460;39.612;8.822;2023-09-18T00:59:06;13.20;;;3.50;;
66603;SDS011;53460;39.612;8.822;2023-09-18T01:01:33;11.80;;;3.10;;
66603;SDS011;53460;39.612;8.822;2023-09-18T01:03:59;9.13;;;3.05;;
66603;SDS011;53460;39.612;8.822;2023-09-18T01:06:24;11.40;;;3.60;;
66603;SDS011;53460;39.612;8.822;2023-09-18T01:08:53;7.88;;;2.60;;
66603;SDS011;53460;39.612;8.822;2023-09-18T01:11:25;7.35;;;2.97;;
66603;SDS011;53460;39.612;8.822;2023-09-18T01:13:57;6.80;;;3.05;;
66603;SDS011;53460;39.612;8.822;2023-09-18T01:16:30;9.27;;;3.20;;
66603;SDS011;53460;39.612;8.822;2023-09-18T01:18:57;8.23;;;2.70;;
66603;SDS011;53460;39.612;8.822;2023-09-18T01:21:24;8.02;;;3.47;;
66603;SDS011;53460;39.612;8.822;2023-09-18T01:23:50;13.20;;;3.38;;
66603;SDS011;53460;39.612;8.822;2023-09-18T01:26:16;7.20;;;2.70;;
66603;SDS011;53460;39.612;8.822;2023-09-18T01:28:42;10.10;;;3.60;;
66603;SDS011;53460;39.612;8.822;2023-09-18T01:31:07;11.35;;;3.28;;
66603;SDS011;53460;39.612;8.822;2023-09-18T01:33:33;12.57;;;3.75;;
66603;SDS011;53460;39.612;8.822;2023-09-18T01:35:59;7.47;;;2.55;;
66603;SDS011;53460;39.612;8.822;2023-09-18T01:38:25;9.77;;;2.80;;
66603;SDS011;53460;39.612;8.822;2023-09-18T01:40:52;10.07;;;2.97;;
66603;SDS011;53460;39.612;8.822;2023-09-18T01:43:18;10.57;;;3.00;;
66603;SDS011;53460;39.612;8.822;2023-09-18T01:45:44;6.10;;;3.00;;
66603;SDS011;53460;39.612;8.822;2023-09-18T01:48:10;6.28;;;2.63;;
66603;SDS011;53460;39.612;8.822;2023-09-18T01:50:36;7.18;;;2.80;;
66603;SDS011;53460;39.612;8.822;2023-09-18T01:53:02;12.63;;;3.22;;
66603;SDS011;53460;39.612;8.822;2023-09-18T01:55:27;10.25;;;2.88;;
66603;SDS011;53460;39.612;8.822;2023-09-18T01:57:55;9.80;;;2.90;;
66603;SDS011;53460;39.612;8.822;2023-09-18T02:00:21;9.88;;;3.58;;
66603;SDS011;53460;39.612;8.822;2023-09-18T02:02:46;6.95;;;2.85;;
66603;SDS011;53460;39.612;8.822;2023-09-18T02:05:12;6.88;;;2.53;;
66603;SDS011;53460;39.612;8.822;2023-09-18T02:07:37;8.30;;;2.70;;
66603;SDS011;53460;39.612;8.822;2023-09-18T02:10:03;15.90;;;4.55;;
66603;SDS011;53460;39.612;8.822;2023-09-18T02:12:29;6.43;;;2.70;;
66603;SDS011;53460;39.612;8.822;2023-09-18T02:14:54;8.95;;;3.10;;
66603;SDS011;53460;39.612;8.822;2023-09-18T02:17:22;11.65;;;3.00;;
66603;SDS011;53460;39.612;8.822;2023-09-18T02:19:48;10.43;;;2.58;;
66603;SDS011;53460;39.612;8.822;2023-09-18T02:22:13;8.82;;;2.70;;
66603;SDS011;53460;39.612;8.822;2023-09-18T02:24:39;11.30;;;3.35;;
66603;SDS011;53460;39.612;8.822;2023-09-18T02:27:04;8.57;;;2.40;;
66603;SDS011;53460;39.612;8.822;2023-09-18T02:29:30;7.65;;;2.67;;
66603;SDS011;53460;39.612;8.822;2023-09-18T02:31:56;10.80;;;2.90;;
66603;SDS011;53460;39.612;8.822;2023-09-18T02:34:21;5.28;;;2.30;;
66603;SDS011;53460;39.612;8.822;2023-09-18T02:36:47;9.60;;;2.50;;
66603;SDS011;53460;39.612;8.822;2023-09-18T02:39:12;8.25;;;2.92;;
66603;SDS011;53460;39.612;8.822;2023-09-18T02:41:38;5.53;;;2.53;;
66603;SDS011;53460;39.612;8.822;2023-09-18T02:44:03;7.90;;;2.40;;
66603;SDS011;53460;39.612;8.822;2023-09-18T02:46:29;12.40;;;3.72;;
66603;SDS011;53460;39.612;8.822;2023-09-18T02:48:55;7.60;;;2.80;;
66603;SDS011;53460;39.612;8.822;2023-09-18T02:51:21;9.93;;;3.47;;
66603;SDS011;53460;39.612;8.822;2023-09-18T02:53:47;8.68;;;2.72;;
66603;SDS011;53460;39.612;8.822;2023-09-18T02:56:12;4.68;;;2.55;;
66603;SDS011;53460;39.612;8.822;2023-09-18T02:58:39;7.22;;;2.47;;
66603;SDS011;53460;39.612;8.822;2023-09-18T03:01:06;12.73;;;2.72;;
66603;SDS011;53460;39.612;8.822;2023-09-18T03:03:32;8.60;;;2.60;;
66603;SDS011;53460;39.612;8.822;2023-09-18T03:06:02;9.77;;;2.97;;
66603;SDS011;53460;39.612;8.822;2023-09-18T03:08:28;16.55;;;4.78;;
66603;SDS011;53460;39.612;8.822;2023-09-18T03:10:54;8.80;;;3.25;;
66603;SDS011;53460;39.612;8.822;2023-09-18T03:13:21;6.82;;;3.17;;
66603;SDS011;53460;39.612;8.822;2023-09-18T03:15:46;9.35;;;3.17;;
66603;SDS011;53460;39.612;8.822;2023-09-18T03:18:14;9.85;;;3.17;;
66603;SDS011;53460;39.612;8.822;2023-09-18T03:20:41;7.95;;;3.05;;
66603;SDS011;53460;39.612;8.822;2023-09-18T03:23:07;12.70;;;3.55;;
66603;SDS011;53460;39.612;8.822;2023-09-18T03:25:32;8.70;;;3.40;;
66603;SDS011;53460;39.612;8.822;2023-09-18T03:27:59;14.63;;;3.80;;
66603;SDS011;53460;39.612;8.822;2023-09-18T03:30:28;10.93;;;2.58;;
66603;SDS011;53460;39.612;8.822;2023-09-18T03:32:54;7.38;;;2.80;;
66603;SDS011;53460;39.612;8.822;2023-09-18T03:35:22;10.80;;;2.83;;
66603;SDS011;53460;39.612;8.822;2023-09-18T03:37:48;11.18;;;2.95;;
66603;SDS011;53460;39.612;8.822;2023-09-18T03:40:16;7.78;;;2.78;;
66603;SDS011;53460;39.612;8.822;2023-09-18T03:42:41;7.80;;;2.78;;
66603;SDS011;53460;39.612;8.822;2023-09-18T03:45:07;7.30;;;2.70;;
66603;SDS011;53460;39.612;8.822;2023-09-18T03:47:34;7.20;;;2.58;;
66603;SDS011;53460;39.612;8.822;2023-09-18T03:50:00;14.55;;;2.33;;
66603;SDS011;53460;39.612;8.822;2023-09-18T03:52:25;8.82;;;2.70;;
66603;SDS011;53460;39.612;8.822;2023-09-18T03:54:52;6.78;;;2.28;;
66603;SDS011;53460;39.612;8.822;2023-09-18T03:57:18;5.82;;;2.38;;
66603;SDS011;53460;39.612;8.822;2023-09-18T03:59:43;6.65;;;2.42;;
66603;SDS011;53460;39.612;8.822;2023-09-18T04:02:10;8.23;;;2.83;;
66603;SDS011;53460;39.612;8.822;2023-09-18T04:04:35;6.50;;;2.30;;
66603;SDS011;53460;39.612;8.822;2023-09-18T04:07:05;8.40;;;2.53;;
66603;SDS011;53460;39.612;8.822;2023-09-18T04:09:30;10.60;;;2.78;;
66603;SDS011;53460;39.612;8.822;2023-09-18T04:11:56;7.10;;;2.83;;
66603;SDS011;53460;39.612;8.822;2023-09-18T04:14:21;5.90;;;2.38;;
66603;SDS011;53460;39.612;8.822;2023-09-18T04:16:46;11.07;;;2.42;;
66603;SDS011;53460;39.612;8.822;2023-09-18T04:19:12;9.20;;;2.53;;
66603;SDS011;53460;39.612;8.822;2023-09-18T04:21:38;8.55;;;2.50;;
66603;SDS011;53460;39.612;8.822;2023-09-18T04:24:04;5.85;;;2.30;;
66603;SDS011;53460;39.612;8.822;2023-09-18T04:26:29;8.93;;;3.20;;
66603;SDS011;53460;39.612;8.822;2023-09-18T04:28:57;12.10;;;3.42;;
66603;SDS011;53460;39.612;8.822;2023-09-18T04:31:23;6.93;;;2.95;;
66603;SDS011;53460;39.612;8.822;2023-09-18T04:33:49;10.77;;;2.78;;
66603;SDS011;53460;39.612;8.822;2023-09-18T04:36:15;9.48;;;2.63;;
66603;SDS011;53460;39.612;8.822;2023-09-18T04:38:40;7.05;;;2.72;;
66603;SDS011;53460;39.612;8.822;2023-09-18T04:41:05;7.57;;;2.90;;
66603;SDS011;53460;39.612;8.822;2023-09-18T04:43:36;7.18;;;2.28;;
66603;SDS011;53460;39.612;8.822;2023-09-18T04:46:04;9.15;;;2.90;;
66603;SDS011;53460;39.612;8.822;2023-09-18T04:48:31;9.30;;;2.80;;
66603;SDS011;53460;39.612;8.822;2023-09-18T04:50:57;9.73;;;2.70;;
66603;SDS011;53460;39.612;8.822;2023-09-18T04:53:24;9.20;;;3.92;;
66603;SDS011;53460;39.612;8.822;2023-09-18T04:55:49;8.50;;;2.88;;
66603;SDS011;53460;39.612;8.822;2023-09-18T04:58:15;8.50;;;2.70;;
66603;SDS011;53460;39.612;8.822;2023-09-18T05:00:41;7.85;;;2.95;;
66603;SDS011;53460;39.612;8.822;2023-09-18T05:03:07;10.25;;;3.10;;
66603;SDS011;53460;39.612;8.822;2023-09-18T05:05:34;9.55;;;3.15;;
66603;SDS011;53460;39.612;8.822;2023-09-18T05:08:00;11.50;;;3.50;;
66603;SDS011;53460;39.612;8.822;2023-09-18T05:10:26;9.60;;;3.22;;
66603;SDS011;53460;39.612;8.822;2023-09-18T05:12:51;13.60;;;2.75;;
66603;SDS011;53460;39.612;8.822;2023-09-18T05:15:26;7.68;;;3.08;;
66603;SDS011;53460;39.612;8.822;2023-09-18T05:17:54;11.27;;;3.33;;
66603;SDS011;53460;39.612;8.822;2023-09-18T05:20:22;9.13;;;2.83;;
66603;SDS011;53460;39.612;8.822;2023-09-18T05:22:50;11.20;;;3.03;;
66603;SDS011;53460;39.612;8.822;2023-09-18T05:25:15;10.05;;;2.88;;
66603;SDS011;53460;39.612;8.822;2023-09-18T05:27:41;10.02;;;2.70;;
66603;SDS011;53460;39.612;8.822;2023-09-18T05:30:13;13.40;;;3.15;;
66603;SDS011;53460;39.612;8.822;2023-09-18T05:32:41;10.63;;;3.35;;
66603;SDS011;53460;39.612;8.822;2023-09-18T05:35:06;11.82;;;2.75;;
66603;SDS011;53460;39.612;8.822;2023-09-18T05:37:35;11.98;;;3.10;;
66603;SDS011;53460;39.612;8.822;2023-09-18T05:40:00;7.30;;;2.65;;
66603;SDS011;53460;39.612;8.822;2023-09-18T05:42:26;13.93;;;3.08;;
66603;SDS011;53460;39.612;8.822;2023-09-18T05:44:51;14.75;;;3.25;;
66603;SDS011;53460;39.612;8.822;2023-09-18T05:47:17;9.48;;;2.80;;
66603;SDS011;53460;39.612;8.822;2023-09-18T05:49:42;16.40;;;3.38;;
66603;SDS011;53460;39.612;8.822;2023-09-18T05:52:08;7.55;;;3.20;;
66603;SDS011;53460;39.612;8.822;2023-09-18T05:54:35;20.33;;;3.55;;
66603;SDS011;53460;39.612;8.822;2023-09-18T05:57:02;6.20;;;2.80;;
66603;SDS011;53460;39.612;8.822;2023-09-18T05:59:28;11.70;;;2.80;;
66603;SDS011;53460;39.612;8.822;2023-09-18T06:01:53;18.38;;;3.38;;
66603;SDS011;53460;39.612;8.822;2023-09-18T06:04:19;10.68;;;3.60;;
66603;SDS011;53460;39.612;8.822;2023-09-18T06:06:44;12.38;;;3.35;;
66603;SDS011;53460;39.612;8.822;2023-09-18T06:09:11;10.30;;;3.85;;
66603;SDS011;53460;39.612;8.822;2023-09-18T06:11:37;10.10;;;3.72;;
66603;SDS011;53460;39.612;8.822;2023-09-18T06:14:03;10.02;;;2.65;;
66603;SDS011;53460;39.612;8.822;2023-09-18T06:16:28;10.65;;;3.60;;
66603;SDS011;53460;39.612;8.822;2023-09-18T06:18:55;7.78;;;2.70;;
66603;SDS011;53460;39.612;8.822;2023-09-18T06:21:21;9.20;;;3.33;;
66603;SDS011;53460;39.612;8.822;2023-09-18T06:23:46;12.82;;;2.80;;
66603;SDS011;53460;39.612;8.822;2023-09-18T06:26:12;8.05;;;2.85;;
66603;SDS011;53460;39.612;8.822;2023-09-18T06:28:37;9.35;;;3.03;;
66603;SDS011;53460;39.612;8.822;2023-09-18T06:31:03;13.40;;;3.38;;
66603;SDS011;53460;39.612;8.822;2023-09-18T06:33:29;5.32;;;2.60;;
66603;SDS011;53460;39.612;8.822;2023-09-18T06:35:55;10.13;;;3.10;;
66603;SDS011;53460;39.612;8.822;2023-09-18T06:38:20;9.23;;;2.85;;
66603;SDS011;53460;39.612;8.822;2023-09-18T06:40:46;13.18;;;3.42;;
66603;SDS011;53460;39.612;8.822;2023-09-18T06:43:12;9.95;;;2.95;;
66603;SDS011;53460;39.612;8.822;2023-09-18T06:45:37;15.15;;;3.22;;
66603;SDS011;53460;39.612;8.822;2023-09-18T06:48:03;11.65;;;3.00;;
66603;SDS011;53460;39.612;8.822;2023-09-18T06:50:29;10.48;;;2.60;;
66603;SDS011;53460;39.612;8.822;2023-09-18T06:52:54;12.82;;;2.88;;
66603;SDS011;53460;39.612;8.822;2023-09-18T06:55:20;8.25;;;2.83;;
66603;SDS011;53460;39.612;8.822;2023-09-18T06:57:45;11.73;;;3.47;;
66603;SDS011;53460;39.612;8.822;2023-09-18T07:00:12;29.60;;;3.20;;
66603;SDS011;53460;39.612;8.822;2023-09-18T07:02:40;11.27;;;2.75;;
66603;SDS011;53460;39.612;8.822;2023-09-18T07:05:05;16.42;;;3.25;;
66603;SDS011;53460;39.612;8.822;2023-09-18T07:07:31;11.52;;;3.35;;
66603;SDS011;53460;39.612;8.822;2023-09-18T07:09:57;10.85;;;2.92;;
66603;SDS011;53460;39.612;8.822;2023-09-18T07:12:23;12.50;;;4.05;;
66603;SDS011;53460;39.612;8.822;2023-09-18T07:14:48;6.38;;;2.58;;
66603;SDS011;53460;39.612;8.822;2023-09-18T07:17:13;10.85;;;3.40;;
66603;SDS011;53460;39.612;8.822;2023-09-18T07:19:40;11.95;;;2.90;;
66603;SDS011;53460;39.612;8.822;2023-09-18T07:22:06;18.45;;;3.50;;
66603;SDS011;53460;39.612;8.822;2023-09-18T07:24:31;13.50;;;3.35;;
66603;SDS011;53460;39.612;8.822;2023-09-18T07:26:57;13.93;;;3.10;;
66603;SDS011;53460;39.612;8.822;2023-09-18T07:29:25;10.07;;;3.17;;
66603;SDS011;53460;39.612;8.822;2023-09-18T07:31:51;25.10;;;3.58;;
66603;SDS011;53460;39.612;8.822;2023-09-18T07:34:16;9.90;;;2.85;;
66603;SDS011;53460;39.612;8.822;2023-09-18T07:36:42;9.27;;;2.80;;
66603;SDS011;53460;39.612;8.822;2023-09-18T07:39:09;8.73;;;2.80;;
66603;SDS011;53460;39.612;8.822;2023-09-18T07:41:35;11.40;;;3.25;;
66603;SDS011;53460;39.612;8.822;2023-09-18T07:44:01;6.00;;;2.45;;
66603;SDS011;53460;39.612;8.822;2023-09-18T07:46:27;8.20;;;4.07;;
66603;SDS011;53460;39.612;8.822;2023-09-18T07:48:52;9.68;;;3.65;;
66603;SDS011;53460;39.612;8.822;2023-09-18T07:51:17;11.07;;;3.08;;
66603;SDS011;53460;39.612;8.822;2023-09-18T07:53:43;10.55;;;2.97;;
66603;SDS011;53460;39.612;8.822;2023-09-18T07:56:09;8.40;;;2.75;;
66603;SDS011;53460;39.612;8.822;2023-09-18T07:58:35;8.25;;;2.95;;
66603;SDS011;53460;39.612;8.822;2023-09-18T08:01:03;9.80;;;2.83;;
66603;SDS011;53460;39.612;8.822;2023-09-18T08:03:31;8.52;;;3.03;;
66603;SDS011;53460;39.612;8.822;2023-09-18T08:05:57;16.35;;;3.78;;
66603;SDS011;53460;39.612;8.822;2023-09-18T08:08:23;14.70;;;3.70;;
66603;SDS011;53460;39.612;8.822;2023-09-18T08:10:49;12.27;;;3.55;;
66603;SDS011;53460;39.612;8.822;2023-09-18T08:13:14;11.38;;;3.50;;
66603;SDS011;53460;39.612;8.822;2023-09-18T08:15:40;10.93;;;3.00;;
66603;SDS011;53460;39.612;8.822;2023-09-18T08:18:05;13.23;;;2.88;;
66603;SDS011;53460;39.612;8.822;2023-09-18T08:20:31;16.05;;;3.28;;
66603;SDS011;53460;39.612;8.822;2023-09-18T08:22:58;8.15;;;2.97;;
66603;SDS011;53460;39.612;8.822;2023-09-18T08:25:26;8.32;;;3.05;;
66603;SDS011;53460;39.612;8.822;2023-09-18T08:27:52;13.38;;;3.25;;
66603;SDS011;53460;39.612;8.822;2023-09-18T08:30:17;12.20;;;3.35;;
66603;SDS011;53460;39.612;8.822;2023-09-18T08:32:46;8.68;;;3.30;;
66603;SDS011;53460;39.612;8.822;2023-09-18T08:35:12;15.38;;;3.53;;
66603;SDS011;53460;39.612;8.822;2023-09-18T08:37:39;8.45;;;2.70;;
66603;SDS011;53460;39.612;8.822;2023-09-18T08:40:05;14.65;;;2.90;;
66603;SDS011;53460;39.612;8.822;2023-09-18T08:42:34;10.80;;;2.70;;
66603;SDS011;53460;39.612;8.822;2023-09-18T08:45:01;10.10;;;3.25;;
66603;SDS011;53460;39.612;8.822;2023-09-18T08:47:29;9.98;;;3.03;;
66603;SDS011;53460;39.612;8.822;2023-09-18T08:49:56;10.77;;;2.97;;
66603;SDS011;53460;39.612;8.822;2023-09-18T08:52:23;12.02;;;3.63;;
66603;SDS011;53460;39.612;8.822;2023-09-18T08:54:49;12.85;;;3.20;;
66603;SDS011;53460;39.612;8.822;2023-09-18T08:57:16;16.15;;;4.20;;
66603;SDS011;53460;39.612;8.822;2023-09-18T08:59:42;14.38;;;3.40;;
66603;SDS011;53460;39.612;8.822;2023-09-18T09:02:08;11.32;;;4.43;;
66603;SDS011;53460;39.612;8.822;2023-09-18T09:04:37;46.50;;;31.15;;
66603;SDS011;53460;39.612;8.822;2023-09-18T09:07:03;10.93;;;5.40;;
66603;SDS011;53460;39.612;8.822;2023-09-18T09:09:28;10.32;;;3.20;;
66603;SDS011;53460;39.612;8.822;2023-09-18T09:11:56;19.30;;;3.90;;
66603;SDS011;53460;39.612;8.822;2023-09-18T09:14:21;12.82;;;3.80;;
66603;SDS011;53460;39.612;8.822;2023-09-18T09:16:53;13.55;;;3.70;;
66603;SDS011;53460;39.612;8.822;2023-09-18T09:19:27;13.75;;;4.40;;
66603;SDS011;53460;39.612;8.822;2023-09-18T09:21:53;11.88;;;3.97;;
66603;SDS011;53460;39.612;8.822;2023-09-18T09:24:22;14.93;;;3.72;;
66603;SDS011;53460;39.612;8.822;2023-09-18T09:27:00;16.27;;;3.80;;
66603;SDS011;53460;39.612;8.822;2023-09-18T09:29:28;15.23;;;5.03;;
66603;SDS011;53460;39.612;8.822;2023-09-18T09:31:55;17.65;;;4.25;;
66603;SDS011;53460;39.612;8.822;2023-09-18T09:34:25;15.18;;;3.85;;
66603;SDS011;53460;39.612;8.822;2023-09-18T09:36:54;14.43;;;4.38;;
66603;SDS011;53460;39.612;8.822;2023-09-18T09:39:20;11.35;;;3.80;;
66603;SDS011;53460;39.612;8.822;2023-09-18T09:41:51;14.48;;;4.10;;
66603;SDS011;53460;39.612;8.822;2023-09-18T09:44:16;12.63;;;3.38;;
66603;SDS011;53460;39.612;8.822;2023-09-18T09:46:49;12.65;;;4.00;;
66603;SDS011;53460;39.612;8.822;2023-09-18T09:49:15;12.88;;;3.50;;
66603;SDS011;53460;39.612;8.822;2023-09-18T09:51:42;12.85;;;4.05;;
66603;SDS011;53460;39.612;8.822;2023-09-18T09:54:08;16.77;;;3.80;;
66603;SDS011;53460;39.612;8.822;2023-09-18T09:56:49;16.30;;;4.28;;
66603;SDS011;53460;39.612;8.822;2023-09-18T09:59:16;12.95;;;4.25;;
66603;SDS011;53460;39.612;8.822;2023-09-18T10:01:43;15.85;;;3.92;;
66603;SDS011;53460;39.612;8.822;2023-09-18T10:04:11;17.95;;;3.97;;
66603;SDS011;53460;39.612;8.822;2023-09-18T10:06:37;21.27;;;4.10;;
66603;SDS011;53460;39.612;8.822;2023-09-18T10:09:03;15.30;;;4.28;;
66603;SDS011;53460;39.612;8.822;2023-09-18T10:11:33;7.85;;;3.42;;
66603;SDS011;53460;39.612;8.822;2023-09-18T10:14:00;19.50;;;4.07;;
66603;SDS011;53460;39.612;8.822;2023-09-18T10:16:30;20.02;;;4.32;;
66603;SDS011;53460;39.612;8.822;2023-09-18T10:26:41;17.15;;;4.60;;
66603;SDS011;53460;39.612;8.822;2023-09-18T10:31:39;18.08;;;5.20;;
66603;SDS011;53460;39.612;8.822;2023-09-18T10:34:06;26.33;;;5.30;;
66603;SDS011;53460;39.612;8.822;2023-09-18T10:36:32;16.70;;;5.20;;
66603;SDS011;53460;39.612;8.822;2023-09-18T10:38:59;23.88;;;5.20;;
66603;SDS011;53460;39.612;8.822;2023-09-18T10:41:25;22.60;;;5.60;;
66603;SDS011;53460;39.612;8.822;2023-09-18T10:43:52;20.30;;;5.70;;
66603;SDS011;53460;39.612;8.822;2023-09-18T10:46:18;22.52;;;5.53;;
66603;SDS011;53460;39.612;8.822;2023-09-18T10:48:44;23.63;;;4.63;;
66603;SDS011;53460;39.612;8.822;2023-09-18T10:51:11;21.73;;;4.55;;
66603;SDS011;53460;39.612;8.822;2023-09-18T10:53:39;20.08;;;4.75;;
66603;SDS011;53460;39.612;8.822;2023-09-18T10:56:04;16.73;;;4.38;;
66603;SDS011;53460;39.612;8.822;2023-09-18T10:58:30;17.45;;;3.92;;
66603;SDS011;53460;39.612;8.822;2023-09-18T11:00:56;22.77;;;5.53;;
66603;SDS011;53460;39.612;8.822;2023-09-18T11:03:24;16.13;;;4.60;;
66603;SDS011;53460;39.612;8.822;2023-09-18T11:06:01;13.00;;;4.00;;
66603;SDS011;53460;39.612;8.822;2023-09-18T11:08:29;22.35;;;4.63;;
66603;SDS011;53460;39.612;8.822;2023-09-18T11:10:55;20.58;;;4.60;;
66603;SDS011;53460;39.612;8.822;2023-09-18T11:13:30;25.27;;;4.82;;
66603;SDS011;53460;39.612;8.822;2023-09-18T11:16:02;22.75;;;5.65;;
66603;SDS011;53460;39.612;8.822;2023-09-18T11:18:37;20.33;;;4.53;;
66603;SDS011;53460;39.612;8.822;2023-09-18T11:21:06;26.15;;;4.78;;
66603;SDS011;53460;39.612;8.822;2023-09-18T11:23:35;20.83;;;4.90;;
66603;SDS011;53460;39.612;8.822;2023-09-18T11:26:08;20.27;;;5.07;;
66603;SDS011;53460;39.612;8.822;2023-09-18T11:28:34;25.60;;;4.53;;
66603;SDS011;53460;39.612;8.822;2023-09-18T11:30:59;18.00;;;5.25;;
66603;SDS011;53460;39.612;8.822;2023-09-18T11:38:23;21.63;;;4.40;;
66603;SDS011;53460;39.612;8.822;2023-09-18T11:40:48;24.50;;;4.70;;
66603;SDS011;53460;39.612;8.822;2023-09-18T11:45:53;20.00;;;4.30;;
66603;SDS011;53460;39.612;8.822;2023-09-18T11:48:20;13.60;;;4.70;;
66603;SDS011;53460;39.612;8.822;2023-09-18T11:50:46;16.15;;;4.20;;
66603;SDS011;53460;39.612;8.822;2023-09-18T11:53:14;22.25;;;4.55;;
66603;SDS011;53460;39.612;8.822;2023-09-18T11:55:40;17.05;;;4.35;;
66603;SDS011;53460;39.612;8.822;2023-09-18T11:58:05;19.27;;;5.22;;
66603;SDS011;53460;39.612;8.822;2023-09-18T12:00:31;15.65;;;3.92;;
66603;SDS011;53460;39.612;8.822;2023-09-18T12:02:57;19.42;;;4.60;;
66603;SDS011;53460;39.612;8.822;2023-09-18T12:05:26;16.00;;;3.67;;
66603;SDS011;53460;39.612;8.822;2023-09-18T12:07:51;14.80;;;4.47;;
66603;SDS011;53460;39.612;8.822;2023-09-18T12:10:18;19.58;;;4.50;;
66603;SDS011;53460;39.612;8.822;2023-09-18T12:12:43;19.35;;;4.57;;
66603;SDS011;53460;39.612;8.822;2023-09-18T12:15:17;19.85;;;4.55;;
66603;SDS011;53460;39.612;8.822;2023-09-18T12:17:43;17.00;;;3.53;;
66603;SDS011;53460;39.612;8.822;2023-09-18T12:20:15;18.35;;;4.20;;
66603;SDS011;53460;39.612;8.822;2023-09-18T12:22:46;19.63;;;4.55;;
66603;SDS011;53460;39.612;8.822;2023-09-18T12:25:12;14.70;;;3.53;;
66603;SDS011;53460;39.612;8.822;2023-09-18T12:27:39;35.70;;;4.38;;
66603;SDS011;53460;39.612;8.822;2023-09-18T12:30:05;17.15;;;4.85;;
66603;SDS011;53460;39.612;8.822;2023-09-18T12:32:30;20.30;;;4.50;;
66603;SDS011;53460;39.612;8.822;2023-09-18T12:34:57;17.38;;;4.50;;
66603;SDS011;53460;39.612;8.822;2023-09-18T12:37:23;19.52;;;3.92;;
66603;SDS011;53460;39.612;8.822;2023-09-18T12:39:48;19.85;;;4.53;;
66603;SDS011;53460;39.612;8.822;2023-09-18T12:42:20;28.67;;;4.38;;
66603;SDS011;53460;39.612;8.822;2023-09-18T12:44:46;21.52;;;4.85;;
66603;SDS011;53460;39.612;8.822;2023-09-18T12:47:12;20.90;;;3.97;;
66603;SDS011;53460;39.612;8.822;2023-09-18T12:49:38;22.70;;;4.32;;
66603;SDS011;53460;39.612;8.822;2023-09-18T12:52:05;21.92;;;4.75;;
66603;SDS011;53460;39.612;8.822;2023-09-18T12:54:41;22.90;;;4.45;;
66603;SDS011;53460;39.612;8.822;2023-09-18T12:57:08;25.65;;;5.28;;
66603;SDS011;53460;39.612;8.822;2023-09-18T12:59:34;27.63;;;5.30;;
66603;SDS011;53460;39.612;8.822;2023-09-18T13:02:04;28.00;;;6.05;;
66603;SDS011;53460;39.612;8.822;2023-09-18T13:04:33;26.30;;;5.82;;
66603;SDS011;53460;39.612;8.822;2023-09-18T13:07:09;37.03;;;5.90;;
66603;SDS011;53460;39.612;8.822;2023-09-18T13:09:36;26.15;;;5.50;;
66603;SDS011;53460;39.612;8.822;2023-09-18T13:12:02;25.27;;;4.72;;
66603;SDS011;53460;39.612;8.822;2023-09-18T13:14:29;22.40;;;4.25;;
66603;SDS011;53460;39.612;8.822;2023-09-18T13:17:00;23.35;;;4.28;;
66603;SDS011;53460;39.612;8.822;2023-09-18T13:19:29;25.08;;;4.72;;
66603;SDS011;53460;39.612;8.822;2023-09-18T13:21:55;18.52;;;3.80;;
66603;SDS011;53460;39.612;8.822;2023-09-18T13:24:27;13.60;;;4.10;;
66603;SDS011;53460;39.612;8.822;2023-09-18T13:26:53;17.63;;;4.57;;
66603;SDS011;53460;39.612;8.822;2023-09-18T13:29:18;21.73;;;4.63;;
66603;SDS011;53460;39.612;8.822;2023-09-18T13:31:44;21.30;;;4.15;;
66603;SDS011;53460;39.612;8.822;2023-09-18T13:34:09;21.75;;;4.03;;
66603;SDS011;53460;39.612;8.822;2023-09-18T13:36:35;20.55;;;3.97;;
66603;SDS011;53460;39.612;8.822;2023-09-18T13:39:00;20.23;;;5.05;;
66603;SDS011;53460;39.612;8.822;2023-09-18T13:41:26;17.67;;;4.38;;
66603;SDS011;53460;39.612;8.822;2023-09-18T13:43:51;18.73;;;4.80;;
66603;SDS011;53460;39.612;8.822;2023-09-18T13:46:21;19.25;;;4.50;;
66603;SDS011;53460;39.612;8.822;2023-09-18T13:48:47;16.98;;;4.60;;
66603;SDS011;53460;39.612;8.822;2023-09-18T13:51:13;22.88;;;4.55;;
66603;SDS011;53460;39.612;8.822;2023-09-18T13:53:38;26.67;;;5.32;;
66603;SDS011;53460;39.612;8.822;2023-09-18T13:56:06;20.80;;;4.78;;
66603;SDS011;53460;39.612;8.822;2023-09-18T13:58:31;23.35;;;5.35;;
66603;SDS011;53460;39.612;8.822;2023-09-18T14:00:57;25.10;;;5.60;;
66603;SDS011;53460;39.612;8.822;2023-09-18T14:03:22;35.88;;;5.22;;
66603;SDS011;53460;39.612;8.822;2023-09-18T14:05:49;20.63;;;4.70;;
66603;SDS011;53460;39.612;8.822;2023-09-18T14:08:14;29.15;;;6.13;;
66603;SDS011;53460;39.612;8.822;2023-09-18T14:10:42;34.10;;;5.93;;
66603;SDS011;53460;39.612;8.822;2023-09-18T14:13:08;28.58;;;6.72;;
66603;SDS011;53460;39.612;8.822;2023-09-18T14:15:33;34.08;;;7.22;;
66603;SDS011;53460;39.612;8.822;2023-09-18T14:17:59;33.63;;;6.93;;
66603;SDS011;53460;39.612;8.822;2023-09-18T14:20:24;28.50;;;6.38;;
66603;SDS011;53460;39.612;8.822;2023-09-18T14:22:50;35.65;;;7.35;;
66603;SDS011;53460;39.612;8.822;2023-09-18T14:25:16;35.40;;;6.80;;
66603;SDS011;53460;39.612;8.822;2023-09-18T14:27:41;26.85;;;6.93;;
66603;SDS011;53460;39.612;8.822;2023-09-18T14:30:07;24.67;;;5.70;;
66603;SDS011;53460;39.612;8.822;2023-09-18T14:32:33;34.25;;;6.70;;
66603;SDS011;53460;39.612;8.822;2023-09-18T14:35:01;33.38;;;6.07;;
66603;SDS011;53460;39.612;8.822;2023-09-18T14:37:28;35.38;;;7.10;;
66603;SDS011;53460;39.612;8.822;2023-09-18T14:39:53;31.52;;;5.70;;
66603;SDS011;53460;39.612;8.822;2023-09-18T14:42:19;33.42;;;7.35;;
66603;SDS011;53460;39.612;8.822;2023-09-18T14:44:44;39.70;;;7.80;;
66603;SDS011;53460;39.612;8.822;2023-09-18T14:47:10;28.85;;;6.35;;
66603;SDS011;53460;39.612;8.822;2023-09-18T14:49:36;28.50;;;6.00;;
66603;SDS011;53460;39.612;8.822;2023-09-18T14:52:02;23.30;;;5.57;;